createdAt,value
2019-04-04T00:01:17.768Z,43.33
2019-04-04T00:03:46.473Z,42.60
2019-04-04T00:06:15.490Z,42.13
2019-04-04T00:08:44.239Z,40.90
2019-04-04T00:11:13.331Z,35.37
2019-04-04T00:13:42.613Z,35.27
2019-04-04T00:16:11.778Z,34.23
2019-04-04T00:18:40.918Z,31.30
2019-04-04T00:21:09.888Z,28.93
2019-04-04T00:23:38.949Z,27.10
2019-04-04T00:26:08.858Z,26.27
2019-04-04T00:28:38.660Z,27.37
2019-04-04T00:31:07.615Z,25.77
2019-04-04T00:33:36.716Z,24.57
2019-04-04T00:36:05.733Z,25.57
2019-04-04T00:38:36.072Z,24.00
2019-04-04T00:41:05.301Z,25.97
2019-04-04T00:43:34.250Z,22.57
2019-04-04T00:46:03.195Z,22.77
2019-04-04T00:48:34.149Z,22.53
2019-04-04T00:51:02.973Z,21.30
2019-04-04T00:53:31.700Z,22.10
2019-04-04T00:56:00.591Z,21.47
2019-04-04T00:58:29.801Z,20.63
2019-04-04T01:00:58.900Z,20.20
2019-04-04T01:03:28.100Z,20.83
2019-04-04T01:05:58.750Z,19.00
2019-04-04T01:08:27.703Z,19.40
2019-04-04T01:10:56.867Z,19.50
2019-04-04T01:13:27.518Z,19.83
2019-04-04T01:15:56.569Z,19.53
2019-04-04T01:18:25.522Z,19.90
2019-04-04T01:20:58.746Z,19.60
2019-04-04T01:23:27.740Z,20.17
2019-04-04T01:25:56.862Z,19.90
2019-04-04T01:28:25.859Z,17.20
2019-04-04T01:30:54.805Z,19.90
2019-04-04T01:33:23.748Z,20.00
2019-04-04T01:35:53.953Z,20.63
2019-04-04T01:38:23.296Z,18.97
2019-04-04T01:40:54.917Z,18.90
2019-04-04T01:43:22.922Z,18.43
2019-04-04T01:45:51.649Z,19.80
2019-04-04T01:48:20.601Z,18.33
2019-04-04T01:50:49.639Z,17.27
2019-04-04T01:53:18.597Z,17.07
2019-04-04T01:55:47.649Z,16.77
2019-04-04T01:58:16.346Z,16.83
2019-04-04T02:00:46.025Z,17.00
2019-04-04T02:03:15.297Z,16.20
2019-04-04T02:05:44.305Z,17.80
2019-04-04T02:08:13.265Z,17.13
2019-04-04T02:10:43.045Z,16.63
2019-04-04T02:13:12.007Z,16.77
2019-04-04T02:15:40.792Z,16.63
2019-04-04T02:18:09.734Z,18.23
2019-04-04T02:20:38.686Z,17.27
2019-04-04T02:23:07.693Z,17.17
2019-04-04T02:25:36.486Z,16.13
2019-04-04T02:28:08.569Z,17.23
2019-04-04T02:30:35.999Z,16.70
2019-04-04T02:33:04.918Z,16.13
2019-04-04T02:35:33.956Z,15.43
2019-04-04T02:38:02.898Z,15.90
2019-04-04T02:40:31.911Z,15.60
2019-04-04T02:43:00.945Z,16.03
2019-04-04T02:45:29.897Z,15.53
2019-04-04T02:47:58.755Z,16.57
2019-04-04T02:50:27.787Z,15.47
2019-04-04T02:52:56.879Z,16.33
2019-04-04T02:55:29.879Z,17.13
2019-04-04T02:57:56.593Z,16.27
2019-04-04T03:00:26.976Z,16.10
2019-04-04T03:02:56.244Z,17.10
2019-04-04T03:05:25.273Z,15.13
2019-04-04T03:07:54.150Z,16.50
2019-04-04T03:10:23.097Z,16.67
2019-04-04T03:12:51.970Z,16.47
2019-04-04T03:15:23.438Z,15.93
2019-04-04T03:17:52.406Z,15.17
2019-04-04T03:20:21.341Z,15.43
2019-04-04T03:22:50.394Z,15.47
2019-04-04T03:25:20.380Z,16.17
2019-04-04T03:27:49.543Z,16.47
2019-04-04T03:30:18.299Z,16.07
2019-04-04T03:32:52.136Z,17.03
2019-04-04T03:35:25.765Z,18.03
2019-04-04T03:37:48.297Z,15.83
2019-04-04T03:40:17.059Z,15.50
2019-04-04T03:42:46.002Z,15.23
2019-04-04T03:45:15.026Z,16.83
2019-04-04T03:47:44.811Z,17.43
2019-04-04T03:50:13.706Z,16.60
2019-04-04T03:52:44.396Z,18.03
2019-04-04T03:55:13.403Z,17.33
2019-04-04T03:57:42.175Z,18.47
2019-04-04T04:00:12.546Z,18.00
2019-04-04T04:02:41.498Z,17.40
2019-04-04T04:05:25.560Z,17.67
2019-04-04T04:12:22.996Z,18.07
2019-04-04T04:15:38.907Z,17.67
2019-04-04T04:18:59.851Z,18.60
2019-04-04T04:22:12.941Z,17.60
2019-04-04T04:25:23.341Z,17.97
2019-04-04T04:28:44.788Z,16.47
2019-04-04T04:30:46.449Z,18.27
2019-04-04T04:33:45.688Z,17.57
2019-04-04T04:36:15.208Z,17.03
2019-04-04T04:39:16.501Z,17.40
2019-04-04T04:42:01.945Z,17.77
2019-04-04T04:45:00.922Z,17.83
2019-04-04T04:47:29.926Z,18.10
2019-04-04T04:49:58.873Z,19.07
2019-04-04T04:52:27.594Z,20.70
2019-04-04T04:54:56.312Z,19.57
2019-04-04T04:57:30.080Z,19.97
2019-04-04T04:59:55.716Z,20.50
2019-04-04T05:02:25.098Z,20.23
2019-04-04T05:04:54.033Z,19.60
2019-04-04T05:07:22.734Z,20.07
2019-04-04T05:09:51.461Z,20.73
2019-04-04T05:12:21.852Z,21.03
2019-04-04T05:14:51.065Z,19.80
2019-04-04T05:17:20.136Z,20.70
2019-04-04T05:19:50.137Z,21.00
2019-04-04T05:22:19.387Z,20.70
2019-04-04T05:25:07.090Z,22.13
2019-04-04T05:27:18.773Z,21.27
2019-04-04T05:29:48.234Z,21.03
2019-04-04T05:32:20.951Z,20.83
2019-04-04T05:34:47.894Z,20.00
2019-04-04T05:37:16.969Z,21.27
2019-04-04T05:39:47.063Z,21.03
2019-04-04T05:42:16.344Z,22.03
2019-04-04T05:44:45.133Z,19.87
2019-04-04T05:47:14.095Z,21.13
2019-04-04T05:49:43.415Z,20.07
2019-04-04T05:52:12.582Z,19.60
2019-04-04T05:54:41.771Z,21.80
2019-04-04T05:57:11.024Z,20.57
2019-04-04T05:59:42.526Z,19.47
2019-04-04T06:02:12.177Z,20.03
2019-04-04T06:04:41.507Z,21.00
2019-04-04T06:07:10.192Z,19.67
2019-04-04T06:09:41.863Z,17.77
2019-04-04T06:12:09.999Z,18.60
2019-04-04T06:14:38.934Z,16.73
2019-04-04T06:17:07.945Z,17.97
2019-04-04T06:19:36.956Z,17.63
2019-04-04T06:22:05.652Z,18.70
2019-04-04T06:24:34.590Z,17.67
2019-04-04T06:27:03.697Z,18.77
2019-04-04T06:29:32.644Z,16.73
2019-04-04T06:32:01.391Z,17.87
2019-04-04T06:34:33.328Z,17.63
2019-04-04T06:37:02.362Z,17.33
2019-04-04T06:39:31.069Z,17.13
2019-04-04T06:42:02.884Z,15.90
2019-04-04T06:44:30.226Z,16.87
2019-04-04T06:47:01.877Z,15.27
2019-04-04T06:49:29.939Z,15.03
2019-04-04T06:51:58.710Z,14.37
2019-04-04T06:54:27.811Z,15.50
2019-04-04T06:56:59.055Z,14.60
2019-04-04T06:59:27.194Z,15.43
2019-04-04T07:01:55.908Z,15.50
2019-04-04T07:04:24.912Z,15.37
2019-04-04T07:06:53.870Z,15.47
2019-04-04T07:09:22.830Z,16.50
2019-04-04T07:11:51.839Z,15.57
2019-04-04T07:14:20.828Z,15.97
2019-04-04T07:16:49.594Z,14.50
2019-04-04T07:19:18.359Z,16.47
2019-04-04T07:21:49.155Z,15.07
2019-04-04T07:24:18.062Z,15.30
2019-04-04T07:26:47.470Z,15.30
2019-04-04T07:29:16.438Z,16.70
2019-04-04T07:31:45.164Z,16.27
2019-04-04T07:34:14.294Z,15.43
2019-04-04T07:36:43.278Z,15.93
2019-04-04T07:39:12.499Z,15.93
2019-04-04T07:41:44.733Z,15.70
2019-04-04T07:44:11.980Z,13.90
2019-04-04T07:46:41.246Z,14.60
2019-04-04T07:49:11.350Z,14.23
2019-04-04T07:51:40.055Z,14.23
2019-04-04T07:54:08.809Z,12.40
2019-04-04T07:56:37.580Z,11.97
2019-04-04T07:59:06.361Z,11.13
2019-04-04T08:01:35.093Z,10.80
2019-04-04T08:04:06.535Z,10.47
2019-04-04T08:06:34.857Z,10.57
2019-04-04T08:09:06.394Z,10.17
2019-04-04T08:11:35.149Z,9.30
2019-04-04T08:14:04.303Z,8.93
2019-04-04T08:16:33.392Z,8.27
2019-04-04T08:19:02.413Z,8.63
2019-04-04T08:21:31.387Z,8.07
2019-04-04T08:24:00.564Z,9.60
2019-04-04T08:26:29.267Z,8.97
2019-04-04T08:28:58.015Z,7.87
2019-04-04T08:31:27.004Z,8.53
2019-04-04T08:33:55.992Z,8.60
2019-04-04T08:36:24.941Z,8.97
2019-04-04T08:38:53.669Z,8.57
2019-04-04T08:41:22.970Z,8.00
2019-04-04T08:43:51.924Z,8.30
2019-04-04T08:46:20.933Z,8.23
2019-04-04T08:48:50.268Z,8.53
2019-04-04T08:51:19.568Z,8.47
2019-04-04T08:53:48.334Z,9.47
2019-04-04T08:56:17.305Z,8.13
2019-04-04T08:58:46.573Z,9.50
2019-04-04T09:01:15.515Z,9.07
2019-04-04T09:03:44.474Z,8.87
2019-04-04T09:08:46.918Z,8.20
2019-04-04T09:11:15.881Z,9.10
2019-04-04T09:13:44.607Z,8.87
2019-04-04T09:16:13.456Z,8.43
2019-04-04T09:18:42.424Z,8.97
2019-04-04T09:21:11.467Z,9.27
2019-04-04T09:23:40.243Z,9.07
2019-04-04T09:26:09.265Z,9.70
2019-04-04T09:28:37.964Z,8.30
2019-04-04T09:31:06.787Z,9.27
2019-04-04T09:33:35.583Z,8.73
2019-04-04T09:36:04.480Z,9.43
2019-04-04T09:38:33.563Z,9.23
2019-04-04T09:41:02.582Z,9.33
2019-04-04T09:43:31.944Z,10.10
2019-04-04T09:46:01.040Z,9.77
2019-04-04T09:48:30.055Z,9.93
2019-04-04T09:50:58.788Z,9.80
2019-04-04T09:53:27.892Z,10.43
2019-04-04T09:55:56.885Z,9.37
2019-04-04T09:58:25.916Z,9.93
2019-04-04T10:00:54.691Z,9.20
2019-04-04T10:03:23.634Z,9.17
2019-04-04T10:05:52.396Z,9.43
2019-04-04T10:08:21.097Z,9.53
2019-04-04T10:10:50.188Z,10.53
2019-04-04T10:13:19.151Z,9.83
2019-04-04T10:15:48.111Z,11.37
2019-04-04T10:18:17.147Z,10.90
2019-04-04T10:20:46.009Z,10.30
2019-04-04T10:23:14.968Z,9.27
2019-04-04T10:25:44.179Z,9.43
2019-04-04T10:28:12.942Z,8.67
2019-04-04T10:30:41.892Z,8.83
2019-04-04T10:33:10.905Z,9.17
2019-04-04T10:35:39.602Z,9.53
2019-04-04T10:38:08.587Z,8.77
2019-04-04T10:40:37.621Z,9.20
2019-04-04T10:43:06.664Z,9.80
2019-04-04T10:45:35.745Z,10.10
2019-04-04T10:48:04.763Z,10.40
2019-04-04T10:50:33.828Z,10.90
2019-04-04T10:53:02.835Z,10.37
2019-04-04T10:55:31.545Z,10.20
2019-04-04T10:58:05.775Z,9.53
2019-04-04T11:00:34.797Z,10.10
2019-04-04T11:03:03.567Z,10.57
2019-04-04T11:05:35.193Z,10.77
2019-04-04T11:08:02.739Z,10.63
2019-04-04T11:10:31.474Z,10.47
2019-04-04T11:13:02.719Z,10.93
2019-04-04T11:15:31.079Z,11.13
2019-04-04T11:18:00.087Z,10.03
2019-04-04T11:20:29.040Z,10.37
2019-04-04T11:22:58.019Z,10.77
2019-04-04T11:25:26.837Z,10.77
2019-04-04T11:27:55.832Z,9.63
2019-04-04T11:30:24.839Z,10.63
2019-04-04T11:32:54.204Z,10.23
2019-04-04T11:35:23.221Z,9.90
2019-04-04T11:37:51.954Z,10.80
2019-04-04T11:40:21.218Z,9.33
2019-04-04T11:42:49.967Z,10.60
2019-04-04T11:45:19.051Z,9.80
2019-04-04T11:47:47.851Z,10.47
2019-04-04T11:50:16.988Z,9.83
2019-04-04T11:52:46.004Z,9.80
2019-04-04T11:55:15.326Z,9.70
2019-04-04T11:57:43.975Z,10.67
2019-04-04T12:00:17.566Z,11.03
2019-04-04T12:02:46.541Z,10.50
2019-04-04T12:05:15.367Z,10.63
2019-04-04T12:07:44.389Z,11.50
2019-04-04T12:10:13.615Z,10.90
2019-04-04T12:12:42.564Z,11.10
2019-04-04T12:15:11.957Z,11.40
2019-04-04T12:17:40.924Z,12.80
2019-04-04T12:20:09.987Z,11.33
2019-04-04T12:22:38.941Z,11.20
2019-04-04T12:25:08.344Z,10.67
2019-04-04T12:27:37.116Z,10.47
2019-04-04T12:30:06.777Z,10.37
2019-04-04T12:32:35.788Z,10.60
2019-04-04T12:35:04.970Z,10.50
2019-04-04T12:37:34.068Z,11.03
2019-04-04T12:40:03.543Z,10.57
2019-04-04T12:42:32.474Z,10.67
2019-04-04T12:45:01.254Z,10.97
2019-04-04T12:47:30.280Z,10.77
2019-04-04T12:49:59.332Z,10.83
2019-04-04T12:52:28.281Z,10.73
2019-04-04T12:54:57.309Z,10.10
2019-04-04T12:57:26.496Z,9.60
2019-04-04T12:59:55.441Z,10.30
2019-04-04T13:02:24.225Z,9.67
2019-04-04T13:04:53.303Z,9.40
2019-04-04T13:07:22.203Z,10.80
2019-04-04T13:09:51.156Z,10.03
2019-04-04T13:12:20.497Z,10.03
2019-04-04T13:14:49.462Z,10.00
2019-04-04T13:17:18.166Z,9.57
2019-04-04T13:19:47.129Z,12.03
2019-04-04T13:22:16.528Z,10.17
2019-04-04T13:24:45.634Z,10.53
2019-04-04T13:27:14.493Z,10.27
2019-04-04T13:29:45.310Z,10.73
2019-04-04T13:32:14.258Z,10.63
2019-04-04T13:34:43.318Z,9.67
2019-04-04T13:37:12.052Z,10.70
2019-04-04T13:39:41.029Z,9.67
2019-04-04T13:42:09.742Z,11.43
2019-04-04T13:44:38.711Z,11.60
2019-04-04T13:47:07.834Z,13.17
2019-04-04T13:49:36.791Z,12.27
2019-04-04T13:52:08.120Z,11.90
2019-04-04T13:54:37.275Z,12.10
2019-04-04T13:57:06.698Z,12.90
2019-04-04T13:59:35.656Z,13.80
2019-04-04T14:02:04.794Z,13.77
2019-04-04T14:04:33.751Z,14.27
2019-04-04T14:07:03.610Z,13.23
2019-04-04T14:09:32.764Z,14.70
2019-04-04T14:12:01.733Z,16.50
2019-04-04T14:14:30.744Z,14.93
2019-04-04T14:16:59.918Z,14.47
2019-04-04T14:19:31.549Z,14.40
2019-04-04T14:22:01.140Z,15.07
2019-04-04T14:24:30.103Z,13.90
2019-04-04T14:26:58.874Z,12.50
2019-04-04T14:29:29.982Z,12.37
2019-04-04T14:31:59.050Z,11.07
2019-04-04T14:34:28.174Z,11.23
2019-04-04T14:36:57.118Z,11.20
2019-04-04T14:39:26.172Z,11.67
2019-04-04T14:41:54.883Z,11.20
2019-04-04T14:44:23.833Z,11.90
2019-04-04T14:46:52.871Z,15.37
2019-04-04T14:49:21.571Z,14.13
2019-04-04T14:51:50.515Z,12.43
2019-04-04T14:54:19.230Z,13.00
2019-04-04T14:56:48.273Z,13.80
2019-04-04T14:59:17.278Z,17.33
2019-04-04T15:01:46.298Z,13.97
2019-04-04T15:04:15.278Z,14.00
2019-04-04T15:06:44.375Z,14.60
2019-04-04T15:09:13.439Z,14.47
2019-04-04T15:11:42.393Z,15.03
2019-04-04T15:14:11.410Z,17.43
2019-04-04T15:16:40.351Z,16.57
2019-04-04T15:19:09.306Z,17.90
2019-04-04T15:21:38.038Z,15.20
2019-04-04T15:24:18.875Z,16.87
2019-04-04T15:26:58.442Z,14.87
2019-04-04T15:29:27.179Z,14.97
2019-04-04T15:31:58.545Z,16.67
2019-04-04T15:34:27.826Z,16.00
2019-04-04T15:36:58.528Z,15.60
2019-04-04T15:39:28.183Z,15.07
2019-04-04T15:41:57.178Z,16.47
2019-04-04T15:44:26.254Z,15.73
2019-04-04T15:46:54.979Z,17.47
2019-04-04T15:49:24.013Z,16.87
2019-04-04T15:51:53.216Z,17.40
2019-04-04T15:54:22.151Z,18.00
2019-04-04T15:56:51.210Z,17.33
2019-04-04T15:59:20.123Z,18.60
2019-04-04T16:01:48.963Z,19.13
2019-04-04T16:04:17.683Z,17.97
2019-04-04T16:06:46.947Z,17.90
2019-04-04T16:09:15.890Z,17.93
2019-04-04T16:11:49.850Z,16.83
2019-04-04T16:14:15.531Z,17.40
2019-04-04T16:16:44.512Z,18.03
2019-04-04T16:19:13.522Z,17.50
2019-04-04T16:21:42.492Z,17.77
2019-04-04T16:24:11.239Z,18.33
2019-04-04T16:26:40.203Z,19.30
2019-04-04T16:29:09.201Z,20.87
2019-04-04T16:31:38.203Z,18.77
2019-04-04T16:34:07.342Z,18.80
2019-04-04T16:36:36.282Z,19.60
2019-04-04T16:39:08.217Z,19.07
2019-04-04T16:41:37.304Z,20.03
2019-04-04T16:44:06.196Z,18.53
2019-04-04T16:46:35.431Z,21.03
2019-04-04T16:49:04.670Z,20.27
2019-04-04T16:51:33.630Z,20.97
2019-04-04T16:54:02.889Z,17.73
2019-04-04T16:56:32.289Z,14.03
2019-04-04T16:59:01.031Z,12.90
2019-04-04T17:01:30.038Z,12.70
2019-04-04T17:04:01.796Z,12.53
2019-04-04T17:06:29.694Z,13.30
2019-04-04T17:08:58.643Z,16.73
2019-04-04T17:11:27.668Z,12.33
2019-04-04T17:13:56.515Z,10.83
2019-04-04T17:16:25.245Z,10.93
2019-04-04T17:18:54.827Z,9.17
2019-04-04T17:21:23.950Z,12.30
2019-04-04T17:23:52.903Z,11.43
2019-04-04T17:26:21.861Z,10.77
2019-04-04T17:28:51.366Z,10.43
2019-04-04T17:31:20.310Z,11.20
2019-04-04T17:33:49.569Z,11.30
2019-04-04T17:36:20.583Z,11.07
2019-04-04T17:38:49.137Z,12.03
2019-04-04T17:41:18.808Z,12.07
2019-04-04T17:43:47.531Z,12.00
2019-04-04T17:46:16.221Z,11.80
2019-04-04T17:48:59.802Z,11.97
2019-04-04T17:51:28.746Z,14.33
2019-04-04T17:53:58.190Z,13.03
2019-04-04T17:56:27.551Z,12.40
2019-04-04T17:58:56.491Z,12.80
2019-04-04T18:01:25.502Z,14.00
2019-04-04T18:03:54.495Z,13.63
2019-04-04T18:06:23.651Z,13.73
2019-04-04T18:08:52.608Z,12.20
2019-04-04T18:11:21.686Z,13.50
2019-04-04T18:13:50.634Z,14.10
2019-04-04T18:16:19.752Z,12.87
2019-04-04T18:18:48.714Z,12.97
2019-04-04T18:21:17.650Z,14.67
2019-04-04T18:23:46.620Z,16.50
2019-04-04T18:26:15.590Z,16.50
2019-04-04T18:28:44.436Z,15.40
2019-04-04T18:31:13.381Z,13.97
2019-04-04T18:33:42.478Z,14.87
2019-04-04T18:36:11.612Z,14.37
2019-04-04T18:38:43.722Z,14.67
2019-04-04T18:41:13.158Z,13.90
2019-04-04T18:43:42.125Z,12.40
2019-04-04T18:46:11.141Z,14.33
2019-04-04T18:48:40.043Z,14.63
2019-04-04T18:51:08.740Z,13.83
2019-04-04T18:53:37.714Z,14.17
2019-04-04T18:56:08.137Z,12.77
2019-04-04T18:58:36.841Z,14.37
2019-04-04T19:01:06.098Z,13.43
2019-04-04T19:03:35.141Z,14.23
2019-04-04T19:06:03.854Z,13.17
2019-04-04T19:08:34.502Z,14.70
2019-04-04T19:11:03.598Z,15.13
2019-04-04T19:13:43.758Z,14.80
2019-04-04T19:16:03.974Z,16.90
2019-04-04T19:18:33.460Z,15.93
2019-04-04T19:21:02.579Z,14.93
2019-04-04T19:23:43.595Z,14.90
2019-04-04T19:26:04.916Z,17.77
2019-04-04T19:28:34.759Z,14.50
2019-04-04T19:31:04.340Z,17.00
2019-04-04T19:33:34.959Z,14.30
2019-04-04T19:36:04.182Z,12.90
2019-04-04T19:38:42.797Z,14.10
2019-04-04T19:41:14.055Z,13.13
2019-04-04T19:43:46.262Z,13.53
2019-04-04T19:46:15.062Z,13.40
2019-04-04T19:48:44.082Z,13.87
2019-04-04T19:51:13.116Z,13.47
2019-04-04T19:53:45.138Z,13.93
2019-04-04T19:56:34.606Z,13.20
2019-04-04T19:59:23.174Z,14.37
2019-04-04T20:01:52.421Z,14.13
2019-04-04T20:04:21.811Z,14.27
2019-04-04T20:06:50.802Z,14.40
2019-04-04T20:09:23.519Z,15.80
2019-04-04T20:11:52.737Z,15.73
2019-04-04T20:14:21.939Z,16.53
2019-04-04T20:16:51.011Z,15.90
2019-04-04T20:19:20.375Z,17.67
2019-04-04T20:21:49.411Z,16.93
2019-04-04T20:24:38.414Z,17.27
2019-04-04T20:27:07.418Z,18.33
2019-04-04T20:30:14.238Z,17.73
2019-04-04T20:32:43.273Z,18.33
2019-04-04T20:35:12.423Z,17.30
2019-04-04T20:37:41.390Z,17.97
2019-04-04T20:40:10.204Z,18.13
2019-04-04T20:42:39.292Z,19.33
2019-04-04T20:45:08.603Z,20.43
2019-04-04T20:47:37.688Z,18.80
2019-04-04T20:50:09.983Z,19.97
2019-04-04T20:52:39.028Z,19.83
2019-04-04T20:57:56.319Z,19.87
2019-04-04T21:00:25.282Z,22.27
2019-04-04T21:02:54.248Z,21.27
2019-04-04T21:08:20.388Z,20.93
2019-04-04T21:10:51.114Z,21.23
2019-04-04T21:13:19.895Z,20.80
2019-04-04T21:15:51.544Z,21.50
2019-04-04T21:18:20.503Z,21.30
2019-04-04T21:20:49.210Z,22.47
2019-04-04T21:23:18.274Z,21.70
2019-04-04T21:25:47.343Z,22.33
2019-04-04T21:28:16.328Z,22.57
2019-04-04T21:30:47.862Z,22.40
2019-04-04T21:33:17.732Z,22.13
2019-04-04T21:35:50.553Z,21.43
2019-04-04T21:39:20.698Z,21.93
2019-04-04T21:41:50.660Z,23.07
2019-04-04T21:44:19.454Z,21.70
2019-04-04T21:46:48.575Z,23.73
2019-04-04T21:49:17.598Z,23.47
2019-04-04T21:51:46.554Z,23.67
2019-04-04T21:54:15.571Z,24.07
2019-04-04T21:56:44.539Z,24.97
2019-04-04T21:59:13.604Z,24.47
2019-04-04T22:01:42.485Z,23.60
2019-04-04T22:04:11.566Z,24.33
2019-04-04T22:06:40.606Z,26.40
2019-04-04T22:09:15.003Z,27.77
2019-04-04T22:11:43.863Z,28.37
2019-04-04T22:14:21.654Z,29.63
2019-04-04T22:16:43.579Z,30.83
2019-04-04T22:19:13.845Z,29.50
2019-04-04T22:21:43.250Z,30.03
2019-04-04T22:24:12.335Z,29.80
2019-04-04T22:30:23.097Z,30.57
2019-04-04T22:32:53.645Z,31.63
2019-04-04T22:35:24.220Z,29.03
2019-04-04T22:37:53.160Z,30.87
2019-04-04T22:40:24.055Z,28.83
2019-04-04T22:42:53.044Z,31.30
2019-04-04T22:45:23.846Z,30.53
2019-04-04T22:47:52.794Z,30.23
2019-04-04T22:50:21.767Z,30.27
2019-04-04T22:52:50.541Z,29.93
2019-04-04T22:55:19.755Z,27.90
2019-04-04T22:57:48.476Z,27.83
2019-04-04T23:00:17.262Z,28.10
2019-04-04T23:02:46.529Z,27.67
2019-04-04T23:05:15.630Z,28.17
2019-04-04T23:08:01.101Z,28.50
2019-04-04T23:10:30.240Z,27.33
2019-04-04T23:12:58.989Z,28.07
2019-04-04T23:15:27.949Z,28.10
2019-04-04T23:17:56.658Z,28.70
2019-04-04T23:20:25.634Z,30.10
2019-04-04T23:22:54.764Z,30.43
2019-04-04T23:25:23.484Z,30.67
2019-04-04T23:27:52.678Z,33.33
2019-04-04T23:30:21.774Z,34.97
2019-04-04T23:32:51.674Z,36.13
2019-04-04T23:35:20.375Z,38.60
2019-04-04T23:37:49.309Z,36.93
2019-04-04T23:40:18.315Z,37.83
2019-04-04T23:42:47.343Z,38.90
2019-04-04T23:45:16.397Z,40.17
2019-04-04T23:47:45.421Z,38.30
2019-04-04T23:50:14.466Z,39.83
2019-04-04T23:53:45.488Z,39.27
2019-04-04T23:56:16.822Z,39.87
2019-04-04T23:59:05.514Z,40.40
